sensor_id;sensor_type;location;lat;lon;timestamp;pressure;altitude;pressure_sealevel;temperature;humidity
55538;BME280;41383;51.418;7.286;2023-08-17T00:01:49;100181.97;;;20.38;82.35
55538;BME280;41383;51.418;7.286;2023-08-17T00:04:14;100176.44;;;20.38;82.04
55538;BME280;41383;51.418;7.286;2023-08-17T00:06:40;100187.03;;;20.45;82.44
55538;BME280;41383;51.418;7.286;2023-08-17T00:09:05;100188.50;;;20.42;82.38
55538;BME280;41383;51.418;7.286;2023-08-17T00:11:32;100194.34;;;20.40;82.01
55538;BME280;41383;51.418;7.286;2023-08-17T00:13:57;100196.97;;;20.46;82.60
55538;BME280;41383;51.418;7.286;2023-08-17T00:16:22;100185.72;;;20.42;82.43
55538;BME280;41383;51.418;7.286;2023-08-17T00:18:48;100173.34;;;20.39;82.12
55538;BME280;41383;51.418;7.286;2023-08-17T00:21:14;100177.09;;;20.44;82.54
55538;BME280;41383;51.418;7.286;2023-08-17T00:23:39;100184.09;;;20.41;81.84
55538;BME280;41383;51.418;7.286;2023-08-17T00:26:04;100172.50;;;20.39;82.27
55538;BME280;41383;51.418;7.286;2023-08-17T00:28:29;100180.16;;;20.33;81.66
55538;BME280;41383;51.418;7.286;2023-08-17T00:30:55;100180.78;;;20.30;82.19
55538;BME280;41383;51.418;7.286;2023-08-17T00:33:20;100185.97;;;20.23;82.32
55538;BME280;41383;51.418;7.286;2023-08-17T00:35:45;100186.97;;;20.27;82.77
55538;BME280;41383;51.418;7.286;2023-08-17T00:38:11;100186.97;;;20.27;82.44
55538;BME280;41383;51.418;7.286;2023-08-17T00:40:37;100176.84;;;20.22;82.25
55538;BME280;41383;51.418;7.286;2023-08-17T00:43:02;100183.81;;;20.11;82.74
55538;BME280;41383;51.418;7.286;2023-08-17T00:45:28;100175.31;;;20.07;82.90
55538;BME280;41383;51.418;7.286;2023-08-17T00:47:56;100166.72;;;20.09;82.66
55538;BME280;41383;51.418;7.286;2023-08-17T00:50:22;100171.59;;;20.12;82.85
55538;BME280;41383;51.418;7.286;2023-08-17T00:52:48;100167.03;;;20.07;82.47
55538;BME280;41383;51.418;7.286;2023-08-17T00:55:13;100170.13;;;20.05;82.80
55538;BME280;41383;51.418;7.286;2023-08-17T00:57:40;100169.91;;;20.02;83.11
55538;BME280;41383;51.418;7.286;2023-08-17T01:00:07;100175.31;;;20.07;83.20
55538;BME280;41383;51.418;7.286;2023-08-17T01:02:34;100169.28;;;20.05;83.25
55538;BME280;41383;51.418;7.286;2023-08-17T01:05:00;100163.97;;;20.09;83.37
55538;BME280;41383;51.418;7.286;2023-08-17T01:07:26;100164.13;;;20.12;83.02
55538;BME280;41383;51.418;7.286;2023-08-17T01:09:52;100182.91;;;19.92;83.30
55538;BME280;41383;51.418;7.286;2023-08-17T01:12:30;100173.97;;;19.95;83.83
55538;BME280;41383;51.418;7.286;2023-08-17T01:18:00;100176.38;;;19.88;83.55
55538;BME280;41383;51.418;7.286;2023-08-17T01:20:30;100169.56;;;19.94;83.70
55538;BME280;41383;51.418;7.286;2023-08-17T01:23:06;100175.56;;;19.88;83.79
55538;BME280;41383;51.418;7.286;2023-08-17T01:25:32;100175.72;;;19.91;84.56
55538;BME280;41383;51.418;7.286;2023-08-17T01:28:03;100170.56;;;19.99;84.01
55538;BME280;41383;51.418;7.286;2023-08-17T01:30:30;100168.91;;;19.98;83.97
55538;BME280;41383;51.418;7.286;2023-08-17T01:33:06;100165.03;;;19.99;83.93
55538;BME280;41383;51.418;7.286;2023-08-17T01:38:03;100157.50;;;19.90;84.41
55538;BME280;41383;51.418;7.286;2023-08-17T01:40:31;100146.16;;;20.01;84.23
55538;BME280;41383;51.418;7.286;2023-08-17T01:42:58;100143.13;;;20.11;83.82
55538;BME280;41383;51.418;7.286;2023-08-17T01:45:24;100137.44;;;20.16;83.82
55538;BME280;41383;51.418;7.286;2023-08-17T01:47:50;100125.25;;;20.17;83.64
55538;BME280;41383;51.418;7.286;2023-08-17T01:50:16;100123.78;;;20.11;83.04
55538;BME280;41383;51.418;7.286;2023-08-17T01:52:41;100116.09;;;20.08;83.16
55538;BME280;41383;51.418;7.286;2023-08-17T01:55:06;100114.16;;;20.09;83.23
55538;BME280;41383;51.418;7.286;2023-08-17T01:57:32;100116.59;;;20.10;83.76
55538;BME280;41383;51.418;7.286;2023-08-17T01:59:57;100123.78;;;20.11;83.45
55538;BME280;41383;51.418;7.286;2023-08-17T02:02:22;100123.56;;;20.08;83.33
55538;BME280;41383;51.418;7.286;2023-08-17T02:04:48;100132.69;;;20.08;83.22
55538;BME280;41383;51.418;7.286;2023-08-17T02:07:13;100126.16;;;20.04;83.15
55538;BME280;41383;51.418;7.286;2023-08-17T02:09:38;100119.50;;;20.05;83.44
55538;BME280;41383;51.418;7.286;2023-08-17T02:12:04;100116.84;;;20.00;82.83
55538;BME280;41383;51.418;7.286;2023-08-17T02:14:29;100118.00;;;19.99;82.64
55538;BME280;41383;51.418;7.286;2023-08-17T02:16:54;100125.31;;;19.94;82.58
55538;BME280;41383;51.418;7.286;2023-08-17T02:19:20;100130.47;;;19.87;82.81
55538;BME280;41383;51.418;7.286;2023-08-17T02:21:45;100118.44;;;19.83;82.82
55538;BME280;41383;51.418;7.286;2023-08-17T02:24:10;100122.00;;;19.83;83.03
55538;BME280;41383;51.418;7.286;2023-08-17T02:26:36;100115.31;;;19.76;83.17
55538;BME280;41383;51.418;7.286;2023-08-17T02:29:03;100111.59;;;19.80;83.33
55538;BME280;41383;51.418;7.286;2023-08-17T02:31:28;100111.59;;;19.80;83.35
55538;BME280;41383;51.418;7.286;2023-08-17T02:33:54;100106.72;;;19.86;83.19
55538;BME280;41383;51.418;7.286;2023-08-17T02:36:23;100107.53;;;19.87;83.08
55538;BME280;41383;51.418;7.286;2023-08-17T02:38:48;100111.59;;;19.89;82.94
55538;BME280;41383;51.418;7.286;2023-08-17T02:41:13;100111.31;;;19.91;83.13
55538;BME280;41383;51.418;7.286;2023-08-17T02:43:38;100114.06;;;19.91;82.85
55538;BME280;41383;51.418;7.286;2023-08-17T02:46:04;100110.16;;;19.92;83.12
55538;BME280;41383;51.418;7.286;2023-08-17T02:48:32;100115.34;;;19.85;82.85
55538;BME280;41383;51.418;7.286;2023-08-17T02:50:57;100110.97;;;19.92;83.50
55538;BME280;41383;51.418;7.286;2023-08-17T02:53:22;100118.13;;;19.93;83.02
55538;BME280;41383;51.418;7.286;2023-08-17T02:55:47;100117.63;;;19.91;83.42
55538;BME280;41383;51.418;7.286;2023-08-17T02:58:13;100120.41;;;19.91;83.45
55538;BME280;41383;51.418;7.286;2023-08-17T03:00:38;100119.59;;;19.91;83.63
55538;BME280;41383;51.418;7.286;2023-08-17T03:03:03;100120.06;;;19.84;83.25
55538;BME280;41383;51.418;7.286;2023-08-17T03:05:29;100114.63;;;19.70;83.03
55538;BME280;41383;51.418;7.286;2023-08-17T03:07:54;100123.09;;;19.74;83.57
55538;BME280;41383;51.418;7.286;2023-08-17T03:10:19;100118.50;;;19.60;83.33
55538;BME280;41383;51.418;7.286;2023-08-17T03:12:44;100119.63;;;19.59;83.64
55538;BME280;41383;51.418;7.286;2023-08-17T03:15:10;100118.72;;;19.73;83.45
55538;BME280;41383;51.418;7.286;2023-08-17T03:17:35;100116.44;;;19.75;83.52
55538;BME280;41383;51.418;7.286;2023-08-17T03:20:00;100117.75;;;19.77;83.44
55538;BME280;41383;51.418;7.286;2023-08-17T03:22:26;100121.97;;;19.75;83.17
55538;BME280;41383;51.418;7.286;2023-08-17T03:24:51;100122.59;;;19.71;83.13
55538;BME280;41383;51.418;7.286;2023-08-17T03:27:16;100121.97;;;19.75;83.02
55538;BME280;41383;51.418;7.286;2023-08-17T03:29:42;100126.53;;;19.70;82.92
55538;BME280;41383;51.418;7.286;2023-08-17T03:32:07;100128.97;;;19.72;82.96
55538;BME280;41383;51.418;7.286;2023-08-17T03:34:32;100127.31;;;19.71;83.00
55538;BME280;41383;51.418;7.286;2023-08-17T03:36:58;100123.59;;;19.76;83.28
55538;BME280;41383;51.418;7.286;2023-08-17T03:39:23;100125.25;;;19.77;83.23
55538;BME280;41383;51.418;7.286;2023-08-17T03:41:48;100126.88;;;19.78;83.22
55538;BME280;41383;51.418;7.286;2023-08-17T03:44:13;100123.09;;;19.74;83.16
55538;BME280;41383;51.418;7.286;2023-08-17T03:46:40;100123.44;;;19.72;82.99
55538;BME280;41383;51.418;7.286;2023-08-17T03:49:05;100121.16;;;19.74;82.82
55538;BME280;41383;51.418;7.286;2023-08-17T03:51:31;100126.13;;;19.63;83.45
55538;BME280;41383;51.418;7.286;2023-08-17T03:53:56;100122.75;;;19.66;82.97
55538;BME280;41383;51.418;7.286;2023-08-17T03:56:21;100117.84;;;19.63;83.16
55538;BME280;41383;51.418;7.286;2023-08-17T03:58:47;100116.22;;;19.62;82.84
55538;BME280;41383;51.418;7.286;2023-08-17T04:01:12;100116.06;;;19.58;83.12
55538;BME280;41383;51.418;7.286;2023-08-17T04:03:38;100120.59;;;19.63;83.00
55538;BME280;41383;51.418;7.286;2023-08-17T04:06:05;100114.13;;;19.68;83.30
55538;BME280;41383;51.418;7.286;2023-08-17T04:08:31;100108.75;;;19.63;82.92
55538;BME280;41383;51.418;7.286;2023-08-17T04:10:56;100119.34;;;19.69;82.94
55538;BME280;41383;51.418;7.286;2023-08-17T04:13:21;100118.22;;;19.70;83.11
55538;BME280;41383;51.418;7.286;2023-08-17T04:15:47;100122.44;;;19.68;82.85
55538;BME280;41383;51.418;7.286;2023-08-17T04:18:12;100125.34;;;19.63;83.08
55538;BME280;41383;51.418;7.286;2023-08-17T04:20:37;100117.72;;;19.68;82.85
55538;BME280;41383;51.418;7.286;2023-08-17T04:23:03;100121.78;;;19.71;82.94
55538;BME280;41383;51.418;7.286;2023-08-17T04:25:28;100129.78;;;19.73;83.11
55538;BME280;41383;51.418;7.286;2023-08-17T04:27:54;100127.41;;;19.57;83.02
55538;BME280;41383;51.418;7.286;2023-08-17T04:30:19;100124.19;;;19.64;83.24
55538;BME280;41383;51.418;7.286;2023-08-17T04:32:44;100123.88;;;19.65;83.11
55538;BME280;41383;51.418;7.286;2023-08-17T04:35:15;100126.63;;;19.65;83.32
55538;BME280;41383;51.418;7.286;2023-08-17T04:37:41;100135.59;;;19.71;82.93
55538;BME280;41383;51.418;7.286;2023-08-17T04:40:07;100138.38;;;19.71;82.79
55538;BME280;41383;51.418;7.286;2023-08-17T04:42:32;100134.44;;;19.63;83.27
55538;BME280;41383;51.418;7.286;2023-08-17T04:44:57;100126.63;;;19.65;83.58
55538;BME280;41383;51.418;7.286;2023-08-17T04:47:23;100128.28;;;19.66;83.18
55538;BME280;41383;51.418;7.286;2023-08-17T04:49:48;100130.06;;;19.62;83.80
55538;BME280;41383;51.418;7.286;2023-08-17T04:52:13;100126.13;;;19.63;83.89
55538;BME280;41383;51.418;7.286;2023-08-17T04:54:38;100130.22;;;19.66;83.18
55538;BME280;41383;51.418;7.286;2023-08-17T04:57:04;100136.91;;;19.65;83.64
55538;BME280;41383;51.418;7.286;2023-08-17T04:59:30;100137.69;;;19.65;83.82
55538;BME280;41383;51.418;7.286;2023-08-17T05:01:55;100139.03;;;19.68;83.56
55538;BME280;41383;51.418;7.286;2023-08-17T05:04:21;100143.72;;;19.67;83.49
55538;BME280;41383;51.418;7.286;2023-08-17T05:06:46;100143.56;;;19.64;83.76
55538;BME280;41383;51.418;7.286;2023-08-17T05:09:11;100137.69;;;19.65;83.98
55538;BME280;41383;51.418;7.286;2023-08-17T05:11:37;100127.97;;;19.68;83.97
55538;BME280;41383;51.418;7.286;2023-08-17T05:14:02;100140.16;;;19.67;83.86
55538;BME280;41383;51.418;7.286;2023-08-17T05:16:28;100143.41;;;19.69;83.88
55538;BME280;41383;51.418;7.286;2023-08-17T05:18:53;100136.75;;;19.70;83.66
55538;BME280;41383;51.418;7.286;2023-08-17T05:21:18;100145.06;;;19.70;83.68
55538;BME280;41383;51.418;7.286;2023-08-17T05:23:44;100138.69;;;19.69;83.43
55538;BME280;41383;51.418;7.286;2023-08-17T05:26:09;100141.13;;;19.62;83.67
55538;BME280;41383;51.418;7.286;2023-08-17T05:28:34;100141.94;;;19.63;83.67
55538;BME280;41383;51.418;7.286;2023-08-17T05:31:05;100137.41;;;19.67;84.21
55538;BME280;41383;51.418;7.286;2023-08-17T05:33:31;100132.66;;;19.67;83.66
55538;BME280;41383;51.418;7.286;2023-08-17T05:35:56;100137.41;;;19.67;84.04
55538;BME280;41383;51.418;7.286;2023-08-17T05:38:21;100142.28;;;19.70;83.69
55538;BME280;41383;51.418;7.286;2023-08-17T05:40:47;100150.91;;;19.68;83.78
55538;BME280;41383;51.418;7.286;2023-08-17T05:43:12;100147.66;;;19.66;84.08
55538;BME280;41383;51.418;7.286;2023-08-17T05:45:37;100147.81;;;19.70;84.12
55538;BME280;41383;51.418;7.286;2023-08-17T05:48:03;100146.88;;;19.75;84.05
55538;BME280;41383;51.418;7.286;2023-08-17T05:50:28;100143.28;;;19.74;84.16
55538;BME280;41383;51.418;7.286;2023-08-17T05:52:54;100140.63;;;19.69;84.01
55538;BME280;41383;51.418;7.286;2023-08-17T05:55:20;100146.00;;;19.65;84.27
55538;BME280;41383;51.418;7.286;2023-08-17T05:57:45;100153.00;;;19.63;84.07
55538;BME280;41383;51.418;7.286;2023-08-17T06:00:11;100148.09;;;19.59;84.76
55538;BME280;41383;51.418;7.286;2023-08-17T06:02:37;100155.44;;;19.64;84.27
55538;BME280;41383;51.418;7.286;2023-08-17T06:05:03;100150.09;;;19.68;84.19
55538;BME280;41383;51.418;7.286;2023-08-17T06:07:28;100152.69;;;19.64;84.25
55538;BME280;41383;51.418;7.286;2023-08-17T06:09:53;100150.25;;;19.71;84.49
55538;BME280;41383;51.418;7.286;2023-08-17T06:12:19;100150.91;;;19.68;83.94
55538;BME280;41383;51.418;7.286;2023-08-17T06:14:44;100152.69;;;19.64;84.44
55538;BME280;41383;51.418;7.286;2023-08-17T06:17:09;100146.50;;;19.67;84.63
55538;BME280;41383;51.418;7.286;2023-08-17T06:19:34;100148.47;;;19.67;84.44
55538;BME280;41383;51.418;7.286;2023-08-17T06:22:00;100142.94;;;19.67;84.23
55538;BME280;41383;51.418;7.286;2023-08-17T06:24:25;100148.47;;;19.67;84.55
55538;BME280;41383;51.418;7.286;2023-08-17T06:26:50;100149.25;;;19.67;84.27
55538;BME280;41383;51.418;7.286;2023-08-17T06:29:15;100146.00;;;19.65;83.90
55538;BME280;41383;51.418;7.286;2023-08-17T06:31:41;100150.22;;;19.63;84.76
55538;BME280;41383;51.418;7.286;2023-08-17T06:34:06;100144.19;;;19.60;84.36
55538;BME280;41383;51.418;7.286;2023-08-17T06:36:31;100149.41;;;19.62;84.79
55538;BME280;41383;51.418;7.286;2023-08-17T06:39:00;100151.22;;;19.67;84.89
55538;BME280;41383;51.418;7.286;2023-08-17T06:41:25;100153.69;;;19.68;84.51
55538;BME280;41383;51.418;7.286;2023-08-17T06:43:51;100161.16;;;19.68;84.56
55538;BME280;41383;51.418;7.286;2023-08-17T06:46:16;100157.44;;;19.73;84.42
55538;BME280;41383;51.418;7.286;2023-08-17T06:48:42;100155.16;;;19.75;84.53
55538;BME280;41383;51.418;7.286;2023-08-17T06:51:08;100155.78;;;19.71;84.62
55538;BME280;41383;51.418;7.286;2023-08-17T06:53:33;100161.97;;;19.68;84.72
55538;BME280;41383;51.418;7.286;2023-08-17T06:55:58;100164.41;;;19.70;84.67
55538;BME280;41383;51.418;7.286;2023-08-17T06:58:23;100158.56;;;19.71;84.59
55538;BME280;41383;51.418;7.286;2023-08-17T07:00:49;100160.69;;;19.75;84.53
55538;BME280;41383;51.418;7.286;2023-08-17T07:03:14;100156.28;;;19.74;84.61
55538;BME280;41383;51.418;7.286;2023-08-17T07:05:39;100164.91;;;19.72;84.68
55538;BME280;41383;51.418;7.286;2023-08-17T07:08:05;100162.47;;;19.70;84.64
55538;BME280;41383;51.418;7.286;2023-08-17T07:10:30;100166.50;;;19.64;84.65
55538;BME280;41383;51.418;7.286;2023-08-17T07:12:55;100168.63;;;19.67;84.94
55538;BME280;41383;51.418;7.286;2023-08-17T07:15:21;100170.13;;;19.74;84.73
55538;BME280;41383;51.418;7.286;2023-08-17T07:17:46;100171.25;;;19.73;84.47
55538;BME280;41383;51.418;7.286;2023-08-17T07:20:11;100168.94;;;19.66;84.93
55538;BME280;41383;51.418;7.286;2023-08-17T07:22:37;100169.75;;;19.66;84.82
55538;BME280;41383;51.418;7.286;2023-08-17T07:25:02;100166.22;;;19.75;84.79
55538;BME280;41383;51.418;7.286;2023-08-17T07:27:29;100172.56;;;19.75;84.74
55538;BME280;41383;51.418;7.286;2023-08-17T07:29:54;100173.22;;;19.72;84.78
55538;BME280;41383;51.418;7.286;2023-08-17T07:32:19;100171.88;;;19.69;84.59
55538;BME280;41383;51.418;7.286;2023-08-17T07:34:46;100175.28;;;19.66;84.98
55538;BME280;41383;51.418;7.286;2023-08-17T07:37:11;100173.81;;;19.69;85.25
55538;BME280;41383;51.418;7.286;2023-08-17T07:39:36;100175.16;;;19.71;85.25
55538;BME280;41383;51.418;7.286;2023-08-17T07:42:02;100173.53;;;19.70;84.83
55538;BME280;41383;51.418;7.286;2023-08-17T07:44:27;100173.78;;;19.60;84.56
55538;BME280;41383;51.418;7.286;2023-08-17T07:46:54;100179.41;;;19.46;84.95
55538;BME280;41383;51.418;7.286;2023-08-17T07:49:19;100176.81;;;19.50;85.39
55538;BME280;41383;51.418;7.286;2023-08-17T07:51:45;100179.09;;;19.47;85.39
55538;BME280;41383;51.418;7.286;2023-08-17T07:54:10;100189.38;;;19.56;85.52
55538;BME280;41383;51.418;7.286;2023-08-17T07:56:36;100174.91;;;19.59;85.57
55538;BME280;41383;51.418;7.286;2023-08-17T07:59:01;100179.19;;;19.65;85.36
55538;BME280;41383;51.418;7.286;2023-08-17T08:01:26;100186.69;;;19.65;85.62
55538;BME280;41383;51.418;7.286;2023-08-17T08:03:52;100188.97;;;19.71;85.30
55538;BME280;41383;51.418;7.286;2023-08-17T08:06:17;100192.88;;;19.70;84.77
55538;BME280;41383;51.418;7.286;2023-08-17T08:08:42;100197.91;;;19.68;84.92
55538;BME280;41383;51.418;7.286;2023-08-17T08:11:09;100201.94;;;19.62;84.80
55538;BME280;41383;51.418;7.286;2023-08-17T08:13:34;100203.78;;;19.67;85.28
55538;BME280;41383;51.418;7.286;2023-08-17T08:16:00;100205.06;;;19.69;85.47
55538;BME280;41383;51.418;7.286;2023-08-17T08:18:25;100201.03;;;19.76;85.50
55538;BME280;41383;51.418;7.286;2023-08-17T08:20:51;100203.47;;;19.77;85.38
55538;BME280;41383;51.418;7.286;2023-08-17T08:23:16;100205.31;;;19.82;85.36
55538;BME280;41383;51.418;7.286;2023-08-17T08:25:41;100207.91;;;19.87;85.34
55538;BME280;41383;51.418;7.286;2023-08-17T08:28:06;100209.91;;;19.87;84.88
55538;BME280;41383;51.418;7.286;2023-08-17T08:30:32;100212.00;;;19.90;85.45
55538;BME280;41383;51.418;7.286;2023-08-17T08:32:57;100211.69;;;19.91;85.27
55538;BME280;41383;51.418;7.286;2023-08-17T08:35:24;100202.78;;;19.94;85.10
55538;BME280;41383;51.418;7.286;2023-08-17T08:37:50;100198.84;;;19.95;85.02
55538;BME280;41383;51.418;7.286;2023-08-17T08:40:16;100203.88;;;19.93;85.26
55538;BME280;41383;51.418;7.286;2023-08-17T08:42:42;100199.50;;;19.92;84.74
55538;BME280;41383;51.418;7.286;2023-08-17T08:45:08;100202.59;;;19.91;85.31
55538;BME280;41383;51.418;7.286;2023-08-17T08:47:36;100205.38;;;19.91;85.12
55538;BME280;41383;51.418;7.286;2023-08-17T08:50:04;100212.34;;;19.88;85.31
55538;BME280;41383;51.418;7.286;2023-08-17T08:52:35;100215.94;;;19.89;85.06
55538;BME280;41383;51.418;7.286;2023-08-17T08:55:21;100216.53;;;19.86;85.21
55538;BME280;41383;51.418;7.286;2023-08-17T08:57:49;100213.66;;;19.91;85.60
55538;BME280;41383;51.418;7.286;2023-08-17T09:00:14;100206.53;;;19.99;85.60
55538;BME280;41383;51.418;7.286;2023-08-17T09:02:41;100211.56;;;19.97;85.25
55538;BME280;41383;51.418;7.286;2023-08-17T09:05:09;100199.06;;;19.99;85.67
55538;BME280;41383;51.418;7.286;2023-08-17T09:07:35;100194.53;;;20.03;85.53
55538;BME280;41383;51.418;7.286;2023-08-17T09:10:02;100192.44;;;20.09;85.19
55538;BME280;41383;51.418;7.286;2023-08-17T09:12:29;100187.41;;;20.11;84.87
55538;BME280;41383;51.418;7.286;2023-08-17T09:14:54;100186.28;;;20.12;85.10
55538;BME280;41383;51.418;7.286;2023-08-17T09:17:24;100186.09;;;20.09;84.77
55538;BME280;41383;51.418;7.286;2023-08-17T09:19:50;100182.06;;;20.15;84.79
55538;BME280;41383;51.418;7.286;2023-08-17T09:22:22;100178.47;;;20.14;84.59
55538;BME280;41383;51.418;7.286;2023-08-17T09:24:48;100171.94;;;20.10;84.69
55538;BME280;41383;51.418;7.286;2023-08-17T09:27:13;100180.09;;;20.15;85.34
55538;BME280;41383;51.418;7.286;2023-08-17T09:29:42;100176.69;;;20.18;85.30
55538;BME280;41383;51.418;7.286;2023-08-17T09:32:08;100185.78;;;20.10;84.29
55538;BME280;41383;51.418;7.286;2023-08-17T09:34:35;100196.13;;;20.04;84.89
55538;BME280;41383;51.418;7.286;2023-08-17T09:37:03;100193.88;;;20.06;84.77
55538;BME280;41383;51.418;7.286;2023-08-17T09:39:30;100199.09;;;20.08;85.30
55538;BME280;41383;51.418;7.286;2023-08-17T09:41:55;100189.78;;;20.04;85.39
55538;BME280;41383;51.418;7.286;2023-08-17T09:44:21;100192.31;;;20.14;85.39
55538;BME280;41383;51.418;7.286;2023-08-17T09:46:46;100192.34;;;20.23;84.95
55538;BME280;41383;51.418;7.286;2023-08-17T09:49:12;100197.72;;;20.20;84.49
55538;BME280;41383;51.418;7.286;2023-08-17T09:51:37;100202.41;;;20.19;84.69
55538;BME280;41383;51.418;7.286;2023-08-17T09:54:03;100192.97;;;20.20;84.90
55538;BME280;41383;51.418;7.286;2023-08-17T09:56:29;100201.13;;;20.25;84.67
55538;BME280;41383;51.418;7.286;2023-08-17T09:58:56;100196.59;;;20.29;84.71
55538;BME280;41383;51.418;7.286;2023-08-17T10:01:23;100190.41;;;20.33;84.59
55538;BME280;41383;51.418;7.286;2023-08-17T10:03:49;100181.31;;;20.41;84.91
55538;BME280;41383;51.418;7.286;2023-08-17T10:06:18;100182.13;;;20.41;84.84
55538;BME280;41383;51.418;7.286;2023-08-17T10:08:47;100174.31;;;20.44;84.46
55538;BME280;41383;51.418;7.286;2023-08-17T10:11:19;100183.91;;;20.46;84.61
55538;BME280;41383;51.418;7.286;2023-08-17T10:16:32;100182.78;;;20.47;84.68
55538;BME280;41383;51.418;7.286;2023-08-17T10:19:07;100188.00;;;20.49;84.70
55538;BME280;41383;51.418;7.286;2023-08-17T10:21:50;100183.13;;;20.46;84.61
55538;BME280;41383;51.418;7.286;2023-08-17T10:24:18;100182.47;;;20.49;85.21
55538;BME280;41383;51.418;7.286;2023-08-17T10:26:45;100183.47;;;20.53;85.02
55538;BME280;41383;51.418;7.286;2023-08-17T10:29:10;100185.72;;;20.51;85.12
55538;BME280;41383;51.418;7.286;2023-08-17T10:31:37;100188.00;;;20.49;84.89
55538;BME280;41383;51.418;7.286;2023-08-17T10:34:03;100181.50;;;20.53;84.85
55538;BME280;41383;51.418;7.286;2023-08-17T10:36:30;100188.88;;;20.58;84.77
55538;BME280;41383;51.418;7.286;2023-08-17T10:39:19;100186.75;;;20.64;84.90
55538;BME280;41383;51.418;7.286;2023-08-17T10:41:50;100186.75;;;20.64;84.90
55538;BME280;41383;51.418;7.286;2023-08-17T10:44:17;100173.69;;;20.64;84.74
55538;BME280;41383;51.418;7.286;2023-08-17T10:46:43;100179.22;;;20.64;nan
55538;BME280;41383;51.418;7.286;2023-08-17T10:49:25;100180.22;;;20.69;84.24
55538;BME280;41383;51.418;7.286;2023-08-17T10:52:03;100178.94;;;20.66;84.24
55538;BME280;41383;51.418;7.286;2023-08-17T10:54:38;100182.34;;;20.72;84.04
55538;BME280;41383;51.418;7.286;2023-08-17T10:57:29;100181.69;;;20.75;84.26
55538;BME280;41383;51.418;7.286;2023-08-17T11:02:34;100178.13;;;20.83;84.17
55538;BME280;41383;51.418;7.286;2023-08-17T11:05:00;100172.09;;;20.90;84.25
55538;BME280;41383;51.418;7.286;2023-08-17T11:07:27;100170.66;;;20.93;83.28
55538;BME280;41383;51.418;7.286;2023-08-17T11:09:53;100171.78;;;20.92;83.14
55538;BME280;41383;51.418;7.286;2023-08-17T11:12:25;100180.09;;;20.92;83.17
55538;BME280;41383;51.418;7.286;2023-08-17T11:14:50;100179.25;;;20.91;82.90
55538;BME280;41383;51.418;7.286;2023-08-17T11:17:16;100180.25;;;20.95;83.55
55538;BME280;41383;51.418;7.286;2023-08-17T11:19:41;100183.00;;;20.95;83.11
55538;BME280;41383;51.418;7.286;2023-08-17T11:22:06;100183.00;;;20.95;82.72
55538;BME280;41383;51.418;7.286;2023-08-17T11:24:33;100174.91;;;20.99;82.79
55538;BME280;41383;51.418;7.286;2023-08-17T11:26:58;100175.41;;;21.01;82.77
55538;BME280;41383;51.418;7.286;2023-08-17T11:29:24;100163.00;;;21.07;82.77
55538;BME280;41383;51.418;7.286;2023-08-17T11:31:50;100161.53;;;21.19;82.73
55538;BME280;41383;51.418;7.286;2023-08-17T11:34:15;100160.72;;;21.27;82.52
55538;BME280;41383;51.418;7.286;2023-08-17T11:36:41;100164.94;;;21.33;82.22
55538;BME280;41383;51.418;7.286;2023-08-17T11:39:06;100164.13;;;21.33;81.74
55538;BME280;41383;51.418;7.286;2023-08-17T11:41:33;100166.72;;;21.38;81.83
55538;BME280;41383;51.418;7.286;2023-08-17T11:43:58;100166.56;;;21.43;81.89
55538;BME280;41383;51.418;7.286;2023-08-17T11:46:24;100162.13;;;21.42;81.10
55538;BME280;41383;51.418;7.286;2023-08-17T11:48:50;100168.84;;;21.41;81.62
55538;BME280;41383;51.418;7.286;2023-08-17T11:51:28;100164.41;;;21.40;81.28
55538;BME280;41383;51.418;7.286;2023-08-17T11:53:58;100171.47;;;21.38;81.46
55538;BME280;41383;51.418;7.286;2023-08-17T11:56:24;100160.69;;;21.36;81.67
55538;BME280;41383;51.418;7.286;2023-08-17T11:58:49;100172.09;;;21.34;81.98
55538;BME280;41383;51.418;7.286;2023-08-17T12:01:14;100172.09;;;21.34;81.78
55538;BME280;41383;51.418;7.286;2023-08-17T12:03:41;100170.50;;;21.25;81.99
55538;BME280;41383;51.418;7.286;2023-08-17T12:06:07;100175.22;;;21.24;82.15
55538;BME280;41383;51.418;7.286;2023-08-17T12:08:33;100172.94;;;21.26;82.29
55538;BME280;41383;51.418;7.286;2023-08-17T12:10:58;100169.50;;;21.29;82.49
55538;BME280;41383;51.418;7.286;2023-08-17T12:13:35;100174.88;;;21.34;82.42
55538;BME280;41383;51.418;7.286;2023-08-17T12:16:01;100180.09;;;21.36;82.20
55538;BME280;41383;51.418;7.286;2023-08-17T12:18:26;100175.69;;;21.35;81.98
55538;BME280;41383;51.418;7.286;2023-08-17T12:20:55;100177.31;;;21.36;82.15
55538;BME280;41383;51.418;7.286;2023-08-17T12:23:20;100183.19;;;21.34;82.40
55538;BME280;41383;51.418;7.286;2023-08-17T12:25:45;100176.03;;;21.33;82.49
55538;BME280;41383;51.418;7.286;2023-08-17T12:28:14;100172.28;;;21.29;82.34
55538;BME280;41383;51.418;7.286;2023-08-17T12:30:39;100176.34;;;21.32;82.42
55538;BME280;41383;51.418;7.286;2023-08-17T12:33:05;100175.56;;;21.31;81.97
55538;BME280;41383;51.418;7.286;2023-08-17T12:35:31;100172.59;;;21.28;82.21
55538;BME280;41383;51.418;7.286;2023-08-17T12:37:56;100172.44;;;21.24;82.12
55538;BME280;41383;51.418;7.286;2023-08-17T12:40:22;100170.50;;;21.25;82.35
55538;BME280;41383;51.418;7.286;2023-08-17T12:42:47;100169.34;;;21.26;82.54
55538;BME280;41383;51.418;7.286;2023-08-17T12:45:13;100171.81;;;21.27;82.81
55538;BME280;41383;51.418;7.286;2023-08-17T12:47:39;100171.94;;;21.22;82.90
55538;BME280;41383;51.418;7.286;2023-08-17T12:50:05;100172.78;;;21.22;83.16
55538;BME280;41383;51.418;7.286;2023-08-17T12:52:30;100173.91;;;21.21;82.93
55538;BME280;41383;51.418;7.286;2023-08-17T12:54:55;100168.84;;;21.23;82.94
55538;BME280;41383;51.418;7.286;2023-08-17T12:57:21;100165.28;;;21.23;82.81